Time;durP1;ratioP1;P1;durP2;ratioP2;P2;SDS_P1;SDS_P2;PMS_P1;PMS_P2;Temp;Humidity;BMP_temperature;BMP_pressure;BME280_temperature;BME280_humidity;BME280_pressure;Samples;Min_cycle;Max_cycle;Signal;HPM_P1;HPM_P2
2022/07/08 00:00:42;;;;;;;10.55;5.37;;;;;;;;;;4192182;34;20213;-65
2022/07/08 00:03:08;;;;;;;8.23;5.30;;;;;;;;;;4192006;34;20117;-65
2022/07/08 00:35:09;;;;;;;9.10;5.10;;;;;;;;;;4419355;28;20205;-70
2022/07/08 00:37:35;;;;;;;9.50;5.45;;;;;;;;;;4164027;34;20114;-71
2022/07/08 00:40:03;;;;;;;11.80;5.47;;;;;;;;;;4164133;34;20119;-71
2022/07/08 00:42:29;;;;;;;8.43;5.80;;;;;;;;;;4162863;34;20141;-76
2022/07/08 00:44:55;;;;;;;11.98;5.43;;;;;;;;;;4164317;34;20123;-79
2022/07/08 00:47:21;;;;;;;8.55;5.47;;;;;;;;;;4164390;34;20113;-77
2022/07/08 00:49:50;;;;;;;9.50;5.82;;;;;;;;;;4164099;34;20110;-79
2022/07/08 00:52:16;;;;;;;11.12;5.72;;;;;;;;;;4162813;34;20119;-71
2022/07/08 00:54:42;;;;;;;10.70;6.57;;;;;;;;;;4140169;34;20139;-72
2022/07/08 00:57:09;;;;;;;13.32;6.00;;;;;;;;;;4129104;34;20133;-72
2022/07/08 00:59:34;;;;;;;11.68;6.20;;;;;;;;;;4151575;34;20126;-72
2022/07/08 01:02:01;;;;;;;10.02;6.07;;;;;;;;;;4151571;34;20510;-69
2022/07/08 01:04:27;;;;;;;10.82;5.30;;;;;;;;;;4163858;34;20110;-76
2022/07/08 01:06:53;;;;;;;14.00;5.65;;;;;;;;;;4162404;34;20138;-75
2022/07/08 01:09:19;;;;;;;8.90;6.25;;;;;;;;;;4164258;34;20223;-75
2022/07/08 01:11:48;;;;;;;9.02;5.95;;;;;;;;;;4163860;34;20118;-75
2022/07/08 01:14:18;;;;;;;11.40;5.47;;;;;;;;;;4151654;34;20099;-77
2022/07/08 01:16:44;;;;;;;9.50;6.10;;;;;;;;;;4151299;34;20215;-70
2022/07/08 01:19:10;;;;;;;12.75;6.65;;;;;;;;;;4139884;34;20531;-70
2022/07/08 01:21:36;;;;;;;10.70;5.87;;;;;;;;;;4151032;34;20115;-70
2022/07/08 01:24:02;;;;;;;16.42;6.22;;;;;;;;;;4162462;34;20125;-70
2022/07/08 01:26:29;;;;;;;8.95;6.55;;;;;;;;;;4151142;34;20115;-69
2022/07/08 01:28:55;;;;;;;12.02;7.20;;;;;;;;;;4162329;34;20562;-69
2022/07/08 01:31:21;;;;;;;12.15;7.10;;;;;;;;;;4163824;34;20114;-69
2022/07/08 01:33:47;;;;;;;12.18;6.90;;;;;;;;;;4163737;34;20200;-70
2022/07/08 01:36:13;;;;;;;8.48;5.87;;;;;;;;;;4139785;34;20122;-69
2022/07/08 01:38:39;;;;;;;9.38;6.30;;;;;;;;;;4150892;34;20125;-69
2022/07/08 01:41:05;;;;;;;12.20;6.80;;;;;;;;;;4163679;34;20155;-69
2022/07/08 01:43:31;;;;;;;10.85;6.35;;;;;;;;;;4163518;34;20123;-69
2022/07/08 01:45:57;;;;;;;12.45;6.72;;;;;;;;;;4163763;34;20118;-69
2022/07/08 01:48:24;;;;;;;12.23;7.07;;;;;;;;;;4163486;34;20103;-69
2022/07/08 01:50:50;;;;;;;9.32;6.62;;;;;;;;;;4162143;34;20619;-70
2022/07/08 01:53:16;;;;;;;9.95;6.35;;;;;;;;;;4163627;34;20137;-69
2022/07/08 01:55:42;;;;;;;11.60;6.50;;;;;;;;;;4151103;34;20134;-69
2022/07/08 01:58:08;;;;;;;10.30;6.65;;;;;;;;;;4163640;34;20113;-69
2022/07/08 02:00:34;;;;;;;11.57;6.57;;;;;;;;;;4163625;34;20215;-69
2022/07/08 02:03:00;;;;;;;14.50;6.97;;;;;;;;;;4161977;34;20138;-69
2022/07/08 02:05:27;;;;;;;14.25;7.05;;;;;;;;;;4139715;34;20134;-69
2022/07/08 02:07:53;;;;;;;17.17;7.18;;;;;;;;;;4163292;34;20459;-70
2022/07/08 02:10:19;;;;;;;14.82;7.28;;;;;;;;;;4150681;34;20118;-69
2022/07/08 02:12:45;;;;;;;27.15;7.78;;;;;;;;;;4162115;34;20547;-69
2022/07/08 02:15:11;;;;;;;12.65;6.43;;;;;;;;;;4150781;34;20129;-69
2022/07/08 02:17:42;;;;;;;16.60;6.93;;;;;;;;;;4161930;34;20117;-69
2022/07/08 02:20:13;;;;;;;17.02;7.93;;;;;;;;;;4163899;34;20190;-69
2022/07/08 02:22:42;;;;;;;8.70;6.60;;;;;;;;;;4163987;34;20215;-69
2022/07/08 02:25:08;;;;;;;16.98;8.48;;;;;;;;;;4152511;34;20540;-69
2022/07/08 02:27:34;;;;;;;13.18;7.40;;;;;;;;;;4165176;34;20511;-69
2022/07/08 02:30:00;;;;;;;16.12;8.60;;;;;;;;;;4165356;34;20106;-69
2022/07/08 02:32:26;;;;;;;11.77;6.93;;;;;;;;;;4165241;34;20620;-69
2022/07/08 02:34:52;;;;;;;12.82;7.28;;;;;;;;;;4165394;34;20131;-69
2022/07/08 02:37:19;;;;;;;13.52;8.18;;;;;;;;;;4163896;34;20129;-69
2022/07/08 02:39:45;;;;;;;11.12;7.85;;;;;;;;;;4165177;34;20162;-69
2022/07/08 02:42:11;;;;;;;16.25;7.25;;;;;;;;;;4163577;34;20114;-69
2022/07/08 02:44:37;;;;;;;14.68;7.43;;;;;;;;;;4163523;34;20210;-69
2022/07/08 02:47:05;;;;;;;16.52;7.50;;;;;;;;;;4152298;34;20225;-69
2022/07/08 02:49:31;;;;;;;17.80;7.70;;;;;;;;;;4163668;34;20099;-69
2022/07/08 02:51:57;;;;;;;13.02;7.72;;;;;;;;;;4165058;34;20231;-69
2022/07/08 02:54:23;;;;;;;14.55;7.40;;;;;;;;;;4163639;34;20494;-69
2022/07/08 02:56:49;;;;;;;17.20;9.02;;;;;;;;;;4152206;34;20153;-69
2022/07/08 02:59:15;;;;;;;20.73;9.40;;;;;;;;;;4165188;34;20196;-69
2022/07/08 03:01:41;;;;;;;25.20;7.97;;;;;;;;;;4165178;34;20137;-69
2022/07/08 03:04:07;;;;;;;11.88;7.45;;;;;;;;;;4165210;34;20125;-69
2022/07/08 03:06:33;;;;;;;13.32;8.70;;;;;;;;;;4164816;34;20212;-69
2022/07/08 03:08:59;;;;;;;17.08;8.60;;;;;;;;;;4164868;34;20463;-68
2022/07/08 03:11:26;;;;;;;23.42;9.43;;;;;;;;;;4152051;34;20117;-68
2022/07/08 03:13:52;;;;;;;15.77;8.60;;;;;;;;;;4164726;34;20474;-69
2022/07/08 03:16:18;;;;;;;26.50;10.38;;;;;;;;;;4164803;34;20190;-70
2022/07/08 03:18:45;;;;;;;22.67;9.95;;;;;;;;;;4163166;34;20444;-69
2022/07/08 03:21:11;;;;;;;18.12;9.32;;;;;;;;;;4163425;34;20130;-69
2022/07/08 03:23:37;;;;;;;19.42;9.32;;;;;;;;;;4163402;34;20109;-69
2022/07/08 03:26:03;;;;;;;21.75;9.07;;;;;;;;;;4163138;34;20133;-70
2022/07/08 03:28:29;;;;;;;23.15;10.43;;;;;;;;;;4163075;34;20507;-69
2022/07/08 03:30:55;;;;;;;17.17;10.32;;;;;;;;;;4160777;34;20210;-70
2022/07/08 03:33:21;;;;;;;16.08;10.68;;;;;;;;;;4144716;34;20179;-71
2022/07/08 03:35:47;;;;;;;20.27;9.82;;;;;;;;;;4148876;34;20074;-71
2022/07/08 03:38:13;;;;;;;19.98;10.38;;;;;;;;;;4162875;34;20129;-69
2022/07/08 03:43:24;;;;;;;18.90;10.35;;;;;;;;;;4158532;34;20199;-71
2022/07/08 03:45:50;;;;;;;40.05;11.90;;;;;;;;;;4155769;34;20154;-71
2022/07/08 03:48:16;;;;;;;25.15;12.23;;;;;;;;;;4156344;34;20510;-70
2022/07/08 03:50:42;;;;;;;22.08;12.15;;;;;;;;;;4156420;34;20094;-70
2022/07/08 03:53:08;;;;;;;22.67;12.15;;;;;;;;;;4158287;34;20456;-69
2022/07/08 03:55:34;;;;;;;27.37;12.75;;;;;;;;;;4163126;34;20604;-71
2022/07/08 03:58:00;;;;;;;32.45;15.77;;;;;;;;;;4163224;34;20125;-70
2022/07/08 04:00:26;;;;;;;30.00;14.40;;;;;;;;;;4152173;34;20114;-69
2022/07/08 04:02:52;;;;;;;31.25;15.10;;;;;;;;;;4164728;34;20115;-71
2022/07/08 04:05:18;;;;;;;35.33;15.68;;;;;;;;;;4164379;34;20191;-70
2022/07/08 04:07:44;;;;;;;34.97;15.13;;;;;;;;;;4164593;34;20130;-68
2022/07/08 04:10:10;;;;;;;27.45;16.12;;;;;;;;;;4163154;34;20138;-69
2022/07/08 04:12:36;;;;;;;34.97;15.60;;;;;;;;;;4164648;34;20144;-69
2022/07/08 04:15:03;;;;;;;41.78;17.65;;;;;;;;;;4164440;34;20178;-73
2022/07/08 04:17:29;;;;;;;31.25;16.95;;;;;;;;;;4164408;34;20623;-73
2022/07/08 04:19:55;;;;;;;38.58;18.05;;;;;;;;;;4163323;34;20111;-73
2022/07/08 04:22:21;;;;;;;32.22;16.70;;;;;;;;;;4164449;34;20229;-73
2022/07/08 04:24:46;;;;;;;32.92;17.20;;;;;;;;;;4164377;34;20462;-73
2022/07/08 04:27:13;;;;;;;43.33;17.95;;;;;;;;;;4162790;34;20134;-73
2022/07/08 04:29:38;;;;;;;43.28;17.90;;;;;;;;;;4164316;34;20102;-73
2022/07/08 04:32:05;;;;;;;39.40;17.92;;;;;;;;;;4162882;34;20235;-71
2022/07/08 04:34:31;;;;;;;35.97;18.35;;;;;;;;;;4164039;34;20504;-74
2022/07/08 04:36:57;;;;;;;34.80;17.42;;;;;;;;;;4163115;34;20130;-73
2022/07/08 04:39:23;;;;;;;34.42;18.23;;;;;;;;;;4164519;34;20107;-73
2022/07/08 04:41:49;;;;;;;40.97;18.70;;;;;;;;;;4163866;34;20126;-74
2022/07/08 04:44:14;;;;;;;41.25;19.83;;;;;;;;;;4164446;34;20134;-73
2022/07/08 04:46:40;;;;;;;37.33;20.75;;;;;;;;;;4164113;34;20147;-74
2022/07/08 04:49:06;;;;;;;39.85;21.42;;;;;;;;;;4164091;34;20103;-74
2022/07/08 04:51:32;;;;;;;40.70;20.33;;;;;;;;;;4164331;34;20138;-74
2022/07/08 04:53:58;;;;;;;53.45;21.33;;;;;;;;;;4164351;34;20122;-73
2022/07/08 04:56:25;;;;;;;40.78;22.80;;;;;;;;;;4164051;34;20121;-74
2022/07/08 04:58:51;;;;;;;42.17;21.65;;;;;;;;;;4163954;34;20530;-74
2022/07/08 05:01:18;;;;;;;41.40;20.75;;;;;;;;;;4164254;34;20126;-74
2022/07/08 05:03:44;;;;;;;44.30;21.58;;;;;;;;;;4164254;34;20195;-76
2022/07/08 05:06:10;;;;;;;36.97;20.17;;;;;;;;;;4163926;34;20219;-76
2022/07/08 05:08:36;;;;;;;38.38;19.75;;;;;;;;;;4164251;34;20118;-78
2022/07/08 05:11:02;;;;;;;35.85;19.58;;;;;;;;;;4164002;34;20153;-75
2022/07/08 05:13:28;;;;;;;37.97;19.33;;;;;;;;;;4163728;34;20123;-75
2022/07/08 05:15:54;;;;;;;30.30;16.58;;;;;;;;;;4163961;34;20537;-75
2022/07/08 05:18:20;;;;;;;35.50;17.25;;;;;;;;;;4164976;34;20202;-76
2022/07/08 05:20:47;;;;;;;33.40;15.50;;;;;;;;;;4164499;34;20111;-78
2022/07/08 05:23:13;;;;;;;29.15;15.77;;;;;;;;;;4164276;34;20217;-76
2022/07/08 05:25:39;;;;;;;32.10;15.68;;;;;;;;;;4163825;34;20502;-78
2022/07/08 05:28:05;;;;;;;27.37;15.20;;;;;;;;;;4164015;34;20130;-78
2022/07/08 05:30:31;;;;;;;21.58;13.73;;;;;;;;;;4163962;34;20115;-77
2022/07/08 05:32:57;;;;;;;30.95;14.87;;;;;;;;;;4163789;34;20203;-77
2022/07/08 05:35:23;;;;;;;33.90;13.30;;;;;;;;;;4163625;34;20186;-77
2022/07/08 05:37:49;;;;;;;24.17;14.35;;;;;;;;;;4163984;34;20211;-74
2022/07/08 05:40:15;;;;;;;22.62;11.93;;;;;;;;;;4164215;34;20134;-77
2022/07/08 05:42:42;;;;;;;23.48;13.40;;;;;;;;;;4162286;34;20133;-77
2022/07/08 05:45:08;;;;;;;26.50;11.90;;;;;;;;;;4162197;34;20094;-78
2022/07/08 05:47:35;;;;;;;29.87;14.35;;;;;;;;;;4163563;34;20095;-76
2022/07/08 05:50:01;;;;;;;28.00;14.10;;;;;;;;;;4150858;34;20228;-79
2022/07/08 05:52:27;;;;;;;25.05;13.57;;;;;;;;;;4163098;34;20178;-72
2022/07/08 05:54:53;;;;;;;30.27;13.77;;;;;;;;;;4163280;34;20095;-79
2022/07/08 05:57:19;;;;;;;21.92;13.45;;;;;;;;;;4163592;34;20139;-79
2022/07/08 05:59:46;;;;;;;13.90;8.73;;;;;;;;;;4163413;34;20114;-82
2022/07/08 06:02:11;;;;;;;16.55;9.68;;;;;;;;;;4163560;34;20124;-76
2022/07/08 06:04:38;;;;;;;21.85;9.25;;;;;;;;;;4163851;34;20109;-77
2022/07/08 06:07:04;;;;;;;15.63;10.32;;;;;;;;;;4163569;34;20114;-73
2022/07/08 06:09:30;;;;;;;15.90;9.98;;;;;;;;;;4151062;34;20091;-79
2022/07/08 06:11:56;;;;;;;20.75;10.80;;;;;;;;;;4161998;34;20514;-80
2022/07/08 06:14:22;;;;;;;19.12;10.68;;;;;;;;;;4163508;34;20094;-79
2022/07/08 06:16:48;;;;;;;18.55;9.75;;;;;;;;;;4163308;34;20134;-77
2022/07/08 06:19:15;;;;;;;23.25;9.98;;;;;;;;;;4163566;34;20087;-78
2022/07/08 06:21:41;;;;;;;9.90;6.93;;;;;;;;;;4163307;34;20595;-78
2022/07/08 06:24:07;;;;;;;17.90;8.32;;;;;;;;;;4150719;34;20207;-80
2022/07/08 06:26:33;;;;;;;13.52;7.45;;;;;;;;;;4163293;34;20467;-76
2022/07/08 06:29:00;;;;;;;9.73;7.00;;;;;;;;;;4161959;34;20205;-77
2022/07/08 06:31:26;;;;;;;18.87;7.05;;;;;;;;;;4163569;34;20467;-77
2022/07/08 06:33:58;;;;;;;20.92;7.50;;;;;;;;;;4150635;34;20127;-75
2022/07/08 06:36:25;;;;;;;13.32;6.85;;;;;;;;;;4162073;34;20205;-81
2022/07/08 06:38:52;;;;;;;13.00;7.60;;;;;;;;;;4163068;34;20527;-76
2022/07/08 06:41:18;;;;;;;12.27;7.12;;;;;;;;;;4163128;34;20199;-81
2022/07/08 06:43:45;;;;;;;14.98;7.97;;;;;;;;;;4150444;34;20448;-82
2022/07/08 06:46:11;;;;;;;18.35;7.97;;;;;;;;;;4161994;34;20211;-79
2022/07/08 06:48:37;;;;;;;17.42;8.70;;;;;;;;;;4150726;34;20119;-77
2022/07/08 06:51:03;;;;;;;21.23;9.18;;;;;;;;;;4174789;34;20132;-80
2022/07/08 06:54:34;;;;;;;17.40;10.32;;;;;;;;;;4176749;34;20315;-78
2022/07/08 06:56:15;;;;;;;14.07;8.82;;;;;;;;;;4175072;34;20118;-79
2022/07/08 06:58:41;;;;;;;17.80;9.23;;;;;;;;;;4164014;34;20616;-78
2022/07/08 07:01:07;;;;;;;15.10;8.95;;;;;;;;;;4176666;34;20145;-78
2022/07/08 07:03:33;;;;;;;18.05;8.63;;;;;;;;;;4176882;34;20110;-77
2022/07/08 07:05:59;;;;;;;11.20;6.87;;;;;;;;;;4178284;34;20118;-81
2022/07/08 07:08:25;;;;;;;15.48;7.25;;;;;;;;;;4177531;34;20409;-81
2022/07/08 07:10:51;;;;;;;13.23;7.75;;;;;;;;;;4179130;34;20532;-80
2022/07/08 07:13:17;;;;;;;12.15;6.57;;;;;;;;;;4177302;34;20129;-81
2022/07/08 07:15:43;;;;;;;12.43;7.22;;;;;;;;;;4178473;34;20215;-81
2022/07/08 07:18:09;;;;;;;12.37;6.50;;;;;;;;;;4178680;34;20229;-81
2022/07/08 07:20:38;;;;;;;9.18;6.72;;;;;;;;;;4177029;34;20110;-80
2022/07/08 07:23:04;;;;;;;9.35;6.65;;;;;;;;;;4178756;34;20110;-82
2022/07/08 07:25:31;;;;;;;13.02;7.28;;;;;;;;;;4165850;34;20207;-81
2022/07/08 07:27:57;;;;;;;18.95;9.27;;;;;;;;;;4178756;34;20507;-82
2022/07/08 07:30:25;;;;;;;20.08;10.02;;;;;;;;;;4178597;34;20540;-71
2022/07/08 07:32:51;;;;;;;14.10;9.60;;;;;;;;;;4143440;34;20190;-71
2022/07/08 07:35:17;;;;;;;15.35;9.55;;;;;;;;;;4165322;34;20203;-70
2022/07/08 07:37:43;;;;;;;13.07;8.30;;;;;;;;;;4176888;34;20130;-71
2022/07/08 07:40:10;;;;;;;9.88;7.40;;;;;;;;;;4176750;34;20145;-72
2022/07/08 07:42:36;;;;;;;17.15;8.05;;;;;;;;;;4165619;34;20205;-72
2022/07/08 07:45:03;;;;;;;13.77;7.47;;;;;;;;;;4177022;34;20107;-73
2022/07/08 07:47:29;;;;;;;14.93;8.48;;;;;;;;;;4178125;34;20133;-72
2022/07/08 07:49:55;;;;;;;13.30;7.15;;;;;;;;;;4176788;34;20117;-72
2022/07/08 07:52:21;;;;;;;13.77;7.68;;;;;;;;;;4176924;34;20126;-72
2022/07/08 07:54:48;;;;;;;11.10;8.20;;;;;;;;;;4178178;34;20467;-73
2022/07/08 07:57:14;;;;;;;16.67;6.62;;;;;;;;;;4176810;34;20119;-72
2022/07/08 07:59:41;;;;;;;10.43;6.93;;;;;;;;;;4178059;34;20627;-72
2022/07/08 08:02:07;;;;;;;11.45;6.45;;;;;;;;;;4154344;34;20110;-72
2022/07/08 08:04:34;;;;;;;11.68;6.93;;;;;;;;;;4176676;34;20188;-71
2022/07/08 08:07:00;;;;;;;8.68;6.60;;;;;;;;;;4176781;34;20471;-72
2022/07/08 08:09:26;;;;;;;24.63;10.57;;;;;;;;;;4165264;34;20110;-71
2022/07/08 08:11:53;;;;;;;32.97;13.73;;;;;;;;;;4165646;34;20158;-73
2022/07/08 08:14:19;;;;;;;25.62;13.27;;;;;;;;;;4142828;34;20121;-72
2022/07/08 08:16:45;;;;;;;28.58;13.15;;;;;;;;;;4177309;34;20121;-71
2022/07/08 08:19:11;;;;;;;27.85;11.68;;;;;;;;;;4178205;34;20122;-71
2022/07/08 08:21:37;;;;;;;24.48;11.88;;;;;;;;;;4178052;34;20149;-72
2022/07/08 08:24:04;;;;;;;23.25;11.88;;;;;;;;;;4165427;34;20115;-74
2022/07/08 08:26:31;;;;;;;24.15;10.45;;;;;;;;;;4165058;34;20098;-73
2022/07/08 08:28:58;;;;;;;16.70;11.00;;;;;;;;;;4165111;34;20541;-73
2022/07/08 08:31:24;;;;;;;20.35;11.57;;;;;;;;;;4178018;34;20122;-74
2022/07/08 08:33:51;;;;;;;19.25;11.15;;;;;;;;;;4177820;34;20113;-72
2022/07/08 08:36:16;;;;;;;14.18;8.90;;;;;;;;;;4165490;34;20127;-72
2022/07/08 08:38:42;;;;;;;18.10;10.90;;;;;;;;;;4176319;34;20468;-71
2022/07/08 08:41:10;;;;;;;17.02;10.13;;;;;;;;;;4177873;34;20118;-71
2022/07/08 08:43:36;;;;;;;23.27;11.63;;;;;;;;;;4165049;34;20097;-73
2022/07/08 08:46:02;;;;;;;18.83;11.55;;;;;;;;;;4164810;34;20130;-72
2022/07/08 08:48:36;;;;;;;20.25;11.55;;;;;;;;;;4165290;34;20126;-72
2022/07/08 08:51:03;;;;;;;14.85;10.50;;;;;;;;;;4176309;34;20098;-70
2022/07/08 08:53:44;;;;;;;16.12;10.15;;;;;;;;;;4176300;34;20207;-73
2022/07/08 08:56:12;;;;;;;15.82;9.10;;;;;;;;;;4166105;34;20105;-71
2022/07/08 08:58:39;;;;;;;17.60;11.55;;;;;;;;;;4165145;34;20106;-71
2022/07/08 09:01:07;;;;;;;18.23;9.82;;;;;;;;;;4176229;34;20122;-72
2022/07/08 09:03:34;;;;;;;15.85;9.57;;;;;;;;;;4176070;34;20206;-71
2022/07/08 09:06:00;;;;;;;6.70;4.60;;;;;;;;;;4177505;34;20538;-73
2022/07/08 09:08:26;;;;;;;11.07;7.12;;;;;;;;;;4177854;34;20116;-70
2022/07/08 09:10:52;;;;;;;10.75;6.87;;;;;;;;;;4176209;34;20329;-72
2022/07/08 09:13:21;;;;;;;13.00;7.12;;;;;;;;;;4176058;34;20447;-74
2022/07/08 09:15:49;;;;;;;12.85;7.07;;;;;;;;;;4177468;34;20102;-72
2022/07/08 09:18:18;;;;;;;9.55;6.85;;;;;;;;;;4153753;34;20191;-71
2022/07/08 09:20:44;;;;;;;10.20;6.72;;;;;;;;;;4176026;34;20183;-73
2022/07/08 09:23:31;;;;;;;6.62;5.40;;;;;;;;;;4177426;34;20091;-73
2022/07/08 09:26:02;;;;;;;6.82;4.82;;;;;;;;;;4153310;34;20132;-72
2022/07/08 09:28:44;;;;;;;13.55;7.28;;;;;;;;;;4175907;34;20519;-71
2022/07/08 09:31:14;;;;;;;13.40;7.28;;;;;;;;;;4175796;34;20261;-71
2022/07/08 09:33:44;;;;;;;9.95;7.15;;;;;;;;;;4176179;34;20223;-70
2022/07/08 09:36:10;;;;;;;11.00;8.13;;;;;;;;;;4177521;34;20166;-71
2022/07/08 09:38:38;;;;;;;10.18;6.68;;;;;;;;;;4164611;34;20129;-71
2022/07/08 09:41:16;;;;;;;13.23;7.53;;;;;;;;;;4164647;34;20503;-71
2022/07/08 09:43:45;;;;;;;16.40;8.77;;;;;;;;;;4177136;34;20218;-71
2022/07/08 09:46:11;;;;;;;15.00;7.85;;;;;;;;;;4175952;34;20459;-71
2022/07/08 09:48:37;;;;;;;17.80;8.10;;;;;;;;;;4175733;34;20124;-73
2022/07/08 09:51:10;;;;;;;13.02;8.57;;;;;;;;;;4177207;34;20192;-72
2022/07/08 09:53:37;;;;;;;10.88;7.80;;;;;;;;;;4165188;34;20481;-75
2022/07/08 09:56:04;;;;;;;20.55;9.30;;;;;;;;;;4177205;34;20110;-72
2022/07/08 09:58:35;;;;;;;11.63;8.35;;;;;;;;;;4164621;34;20102;-72
2022/07/08 10:01:02;;;;;;;18.73;9.32;;;;;;;;;;4177118;34;20126;-72
2022/07/08 10:03:28;;;;;;;13.13;7.75;;;;;;;;;;4164368;34;20119;-71
2022/07/08 10:05:54;;;;;;;11.68;8.15;;;;;;;;;;4164443;34;20121;-73
2022/07/08 10:08:21;;;;;;;13.18;9.20;;;;;;;;;;4177164;34;20114;-74
2022/07/08 10:10:51;;;;;;;18.45;11.20;;;;;;;;;;4175699;34;20110;-72
2022/07/08 10:13:20;;;;;;;17.92;12.25;;;;;;;;;;4164915;34;20176;-72
2022/07/08 10:15:48;;;;;;;18.35;12.35;;;;;;;;;;4176825;34;20093;-72
2022/07/08 10:18:55;;;;;;;16.83;11.07;;;;;;;;;;4175566;34;20114;-69
2022/07/08 10:21:23;;;;;;;15.35;9.63;;;;;;;;;;4134186;34;20272;-69
2022/07/08 10:23:51;;;;;;;16.20;10.82;;;;;;;;;;4156045;34;20138;-69
2022/07/08 10:26:20;;;;;;;16.02;10.82;;;;;;;;;;4164202;34;20119;-70
2022/07/08 10:29:00;;;;;;;12.80;9.40;;;;;;;;;;4175767;34;20459;-74
2022/07/08 10:31:26;;;;;;;17.12;9.80;;;;;;;;;;4163984;34;20125;-70
2022/07/08 10:34:00;;;;;;;11.18;8.63;;;;;;;;;;4176541;34;20211;-71
2022/07/08 10:36:26;;;;;;;16.67;9.73;;;;;;;;;;4176611;34;20124;-68
2022/07/08 10:38:54;;;;;;;14.02;9.27;;;;;;;;;;4164171;34;20129;-71
2022/07/08 10:41:26;;;;;;;13.00;9.18;;;;;;;;;;4166032;34;20134;-68
2022/07/08 10:43:54;;;;;;;12.02;7.60;;;;;;;;;;4177351;34;20542;-69
2022/07/08 10:46:21;;;;;;;13.35;7.65;;;;;;;;;;4177611;34;20106;-71
2022/07/08 10:48:47;;;;;;;14.23;8.57;;;;;;;;;;4178723;34;20124;-70
2022/07/08 10:51:25;;;;;;;8.95;6.85;;;;;;;;;;4178721;34;20171;-71
2022/07/08 10:53:51;;;;;;;11.20;7.32;;;;;;;;;;4177205;34;20189;-71
2022/07/08 10:56:44;;;;;;;11.90;7.97;;;;;;;;;;4178746;34;20122;-69
2022/07/08 10:59:31;;;;;;;12.68;7.40;;;;;;;;;;4178693;34;20096;-80
2022/07/08 11:02:16;;;;;;;10.68;6.78;;;;;;;;;;4154502;34;20098;-70
2022/07/08 11:04:51;;;;;;;10.25;5.43;;;;;;;;;;4178738;34;20122;-69
2022/07/08 11:07:17;;;;;;;;;;;;;;;;;;4177801;34;20122;-69
2022/07/08 11:09:49;;;;;;;6.85;5.57;;;;;;;;;;4178510;34;20385;-71
2022/07/08 11:12:17;;;;;;;10.82;6.12;;;;;;;;;;4178752;34;20237;-69
2022/07/08 11:14:44;;;;;;;7.95;5.80;;;;;;;;;;4165996;34;20130;-70
2022/07/08 11:17:17;;;;;;;8.32;6.15;;;;;;;;;;4165783;34;20105;-72
2022/07/08 11:19:44;;;;;;;7.57;6.03;;;;;;;;;;4165797;34;20111;-69
2022/07/08 11:22:11;;;;;;;8.50;5.37;;;;;;;;;;4178595;34;20114;-70
2022/07/08 11:24:41;;;;;;;7.68;5.85;;;;;;;;;;4166019;34;20479;-71
2022/07/08 11:27:07;;;;;;;8.57;5.35;;;;;;;;;;4165634;34;20103;-72
2022/07/08 11:29:34;;;;;;;10.10;6.37;;;;;;;;;;4177103;34;20546;-72
2022/07/08 11:32:05;;;;;;;8.48;5.60;;;;;;;;;;4165622;34;20108;-72
2022/07/08 11:34:31;;;;;;;6.78;5.68;;;;;;;;;;4165210;34;20202;-70
2022/07/08 11:36:59;;;;;;;10.15;6.10;;;;;;;;;;4165603;34;20106;-73
2022/07/08 11:39:25;;;;;;;12.13;6.97;;;;;;;;;;4165539;34;20130;-72
2022/07/08 11:41:52;;;;;;;9.05;6.50;;;;;;;;;;4165645;34;20205;-71
2022/07/08 11:44:21;;;;;;;10.73;5.85;;;;;;;;;;4177032;34;20102;-72
2022/07/08 11:46:48;;;;;;;10.15;5.85;;;;;;;;;;4165731;34;20110;-69
2022/07/08 11:49:15;;;;;;;10.35;5.93;;;;;;;;;;4177168;34;20320;-72
2022/07/08 11:51:48;;;;;;;9.88;6.05;;;;;;;;;;4164709;34;20122;-71
2022/07/08 11:54:15;;;;;;;9.88;6.72;;;;;;;;;;4178151;34;20548;-71
2022/07/08 11:56:42;;;;;;;8.52;6.53;;;;;;;;;;4165530;34;20126;-72
2022/07/08 11:59:08;;;;;;;8.48;6.18;;;;;;;;;;4165313;34;20137;-71
2022/07/08 12:01:35;;;;;;;10.98;6.45;;;;;;;;;;4178175;34;20103;-71
2022/07/08 12:04:05;;;;;;;6.62;5.30;;;;;;;;;;4153916;34;20103;-73
2022/07/08 12:06:32;;;;;;;8.48;5.18;;;;;;;;;;4154127;34;20106;-72
2022/07/08 12:08:58;;;;;;;7.97;5.62;;;;;;;;;;4176506;34;20134;-69
2022/07/08 12:11:25;;;;;;;9.73;5.82;;;;;;;;;;4178235;34;20628;-69
2022/07/08 12:13:52;;;;;;;9.13;5.37;;;;;;;;;;4154054;34;20546;-69
2022/07/08 12:16:35;;;;;;;12.05;6.45;;;;;;;;;;4176575;34;20173;-70
2022/07/08 12:19:03;;;;;;;8.23;5.47;;;;;;;;;;4165303;34;20586;-69
2022/07/08 12:21:29;;;;;;;9.05;5.37;;;;;;;;;;4165248;34;20103;-69
2022/07/08 12:24:00;;;;;;;7.53;5.28;;;;;;;;;;4176548;34;20134;-70
2022/07/08 12:26:26;;;;;;;8.30;5.20;;;;;;;;;;4177890;34;20105;-69
2022/07/08 12:28:53;;;;;;;12.30;6.18;;;;;;;;;;4177945;34;20126;-72
2022/07/08 12:31:32;;;;;;;10.77;5.87;;;;;;;;;;4177890;34;20106;-70
2022/07/08 12:34:02;;;;;;;9.13;5.50;;;;;;;;;;4177638;34;20114;-70
2022/07/08 12:36:28;;;;;;;8.20;5.75;;;;;;;;;;4177865;34;20098;-70
2022/07/08 12:38:57;;;;;;;10.25;5.32;;;;;;;;;;4165068;34;20141;-69
2022/07/08 12:41:23;;;;;;;8.00;5.62;;;;;;;;;;4165412;34;20174;-72
2022/07/08 12:43:49;;;;;;;7.95;5.95;;;;;;;;;;4165101;34;20145;-71
2022/07/08 12:46:15;;;;;;;10.60;6.68;;;;;;;;;;4176338;34;20125;-71
2022/07/08 12:48:41;;;;;;;10.80;6.45;;;;;;;;;;4177571;34;20125;-71
2022/07/08 12:51:07;;;;;;;8.10;6.60;;;;;;;;;;4165047;34;20114;-69
2022/07/08 12:53:33;;;;;;;10.68;6.25;;;;;;;;;;4177687;34;20221;-70
2022/07/08 12:55:59;;;;;;;11.93;6.57;;;;;;;;;;4177705;34;20126;-69
2022/07/08 12:58:26;;;;;;;10.10;6.68;;;;;;;;;;4165143;34;20215;-70
2022/07/08 13:00:52;;;;;;;14.82;7.25;;;;;;;;;;4177554;34;20127;-71
2022/07/08 13:03:18;;;;;;;11.60;6.50;;;;;;;;;;4153252;34;20440;-68
2022/07/08 13:05:44;;;;;;;10.10;6.72;;;;;;;;;;4177756;34;20195;-75
2022/07/08 13:08:10;;;;;;;13.23;6.12;;;;;;;;;;4177473;34;20547;-72
2022/07/08 13:10:37;;;;;;;19.00;6.43;;;;;;;;;;4177502;34;20107;-73
2022/07/08 13:13:06;;;;;;;11.12;6.55;;;;;;;;;;4176385;34;20099;-68
2022/07/08 13:15:35;;;;;;;15.43;6.75;;;;;;;;;;4177416;34;20581;-73
2022/07/08 13:18:02;;;;;;;11.38;6.43;;;;;;;;;;4177420;34;20098;-72
2022/07/08 13:20:28;;;;;;;12.32;6.50;;;;;;;;;;4177666;34;20126;-67
2022/07/08 13:22:54;;;;;;;12.52;5.90;;;;;;;;;;4177475;34;20129;-68
2022/07/08 13:25:20;;;;;;;10.25;6.65;;;;;;;;;;4177365;34;20181;-68
2022/07/08 13:27:46;;;;;;;8.15;6.20;;;;;;;;;;4175975;34;20110;-70
2022/07/08 13:30:12;;;;;;;13.62;6.62;;;;;;;;;;4177516;34;20632;-71
2022/07/08 13:32:38;;;;;;;8.50;6.40;;;;;;;;;;4164974;34;20203;-69
2022/07/08 13:35:05;;;;;;;10.07;7.22;;;;;;;;;;4175923;34;20141;-71
2022/07/08 13:37:31;;;;;;;9.48;6.53;;;;;;;;;;4177391;34;20120;-70
2022/07/08 13:39:57;;;;;;;11.15;6.40;;;;;;;;;;4177315;34;20210;-70
2022/07/08 13:42:24;;;;;;;10.00;6.60;;;;;;;;;;4177282;34;20549;-73
2022/07/08 13:44:50;;;;;;;13.07;6.50;;;;;;;;;;4177179;34;20114;-67
2022/07/08 13:47:16;;;;;;;9.68;7.32;;;;;;;;;;4177204;34;20506;-68
2022/07/08 13:49:42;;;;;;;9.25;6.35;;;;;;;;;;4177035;34;20205;-68
2022/07/08 13:52:07;;;;;;;24.27;7.10;;;;;;;;;;4177261;34;20121;-71
2022/07/08 13:54:33;;;;;;;10.68;6.05;;;;;;;;;;4177384;34;20125;-71
2022/07/08 13:56:59;;;;;;;18.27;7.12;;;;;;;;;;4177110;34;20152;-71
2022/07/08 13:59:25;;;;;;;9.57;6.37;;;;;;;;;;4177057;34;20126;-71
2022/07/08 14:01:51;;;;;;;11.02;5.70;;;;;;;;;;4177199;34;20122;-70
2022/07/08 14:04:18;;;;;;;20.70;6.40;;;;;;;;;;4177076;34;20120;-75
2022/07/08 14:06:44;;;;;;;8.52;6.07;;;;;;;;;;4153056;34;20468;-72
2022/07/08 14:09:10;;;;;;;8.10;5.80;;;;;;;;;;4177136;34;20137;-73
2022/07/08 14:11:36;;;;;;;6.72;5.60;;;;;;;;;;4176989;34;20145;-71
2022/07/08 14:14:02;;;;;;;11.40;5.45;;;;;;;;;;4176264;34;20101;-68
2022/07/08 14:16:28;;;;;;;6.82;5.28;;;;;;;;;;4176947;34;20459;-67
2022/07/08 14:18:54;;;;;;;10.25;5.47;;;;;;;;;;4175497;34;20107;-67
2022/07/08 14:21:20;;;;;;;12.43;6.15;;;;;;;;;;4175524;34;20696;-67
2022/07/08 14:23:46;;;;;;;13.32;5.57;;;;;;;;;;4175579;34;20417;-68
2022/07/08 14:26:13;;;;;;;12.90;5.90;;;;;;;;;;4175465;34;20215;-69
2022/07/08 14:28:39;;;;;;;10.57;5.90;;;;;;;;;;4175632;34;20145;-76
2022/07/08 14:31:07;;;;;;;7.87;4.97;;;;;;;;;;4164136;34;20119;-67
2022/07/08 14:33:34;;;;;;;12.25;6.37;;;;;;;;;;4175299;34;20108;-71
2022/07/08 14:36:02;;;;;;;8.90;6.05;;;;;;;;;;4176467;34;20125;-73
2022/07/08 14:38:28;;;;;;;12.98;5.97;;;;;;;;;;4175526;34;20114;-70
2022/07/08 14:40:54;;;;;;;10.98;5.95;;;;;;;;;;4177027;34;20110;-72
2022/07/08 14:43:20;;;;;;;9.23;5.85;;;;;;;;;;4176668;34;20211;-72
2022/07/08 14:45:47;;;;;;;9.63;6.12;;;;;;;;;;4176608;34;20111;-72
2022/07/08 14:48:13;;;;;;;13.20;6.20;;;;;;;;;;4175439;34;20102;-71
2022/07/08 14:50:39;;;;;;;22.30;6.07;;;;;;;;;;4176728;34;20144;-71
2022/07/08 14:53:05;;;;;;;8.05;5.85;;;;;;;;;;4176718;34;20124;-72
2022/07/08 14:55:31;;;;;;;11.12;6.55;;;;;;;;;;4164024;34;20350;-70
2022/07/08 14:57:58;;;;;;;7.57;5.32;;;;;;;;;;4176558;34;20232;-71
2022/07/08 15:00:24;;;;;;;8.30;5.80;;;;;;;;;;4176413;34;20189;-71